Terminal Aerodrome Forecast
Issued by NWS

Home | Current Version | Previous Version | Text Only | Print | Product List | Glossary On
Versions: 1 2 3 4 5 6 7 8 9 10 11 12 13
000
FTAK31 PAJN 261129
TAFASI
TAF
PASI 261129Z 2612/2712 10005KT P6SM VCSH SCT040 OVC080
     FM262100 08009KT P6SM OVC060
     FM270400 11007KT P6SM -RA SCT020 OVC040
     FM271000 12010KT 5SM -RA BR OVC020=

USA.gov is the U.S. government's official web portal to all federal, state and local government web resources and services.